Time,TemperatureF,DewpointF,PressureIn,WindDirection,WindDirectionDegrees,WindSpeedMPH,WindSpeedGustMPH,Humidity,HourlyPrecipIn,Conditions,Clouds,dailyrainin,SoftwareType,DateUTC
2013-06-17 00:02:00,67.0,60.0,29.87,WSW,257,0.0,0.0,79,0.00,,,0.00,,2013-06-17 04:02:00,
2013-06-17 00:12:00,67.0,60.0,29.87,WSW,256,0.0,0.0,79,0.00,,,0.00,,2013-06-17 04:12:00,
2013-06-17 00:22:00,66.0,60.0,29.87,WSW,257,0.0,0.0,80,0.00,,,0.00,,2013-06-17 04:22:00,
2013-06-17 00:34:00,66.0,60.0,29.88,WSW,257,0.0,0.0,80,0.00,,,0.00,,2013-06-17 04:34:00,
2013-06-17 00:43:00,66.0,60.0,29.88,WSW,257,0.0,0.0,81,0.00,,,0.00,,2013-06-17 04:43:00,
2013-06-17 00:53:00,66.0,60.0,29.88,WSW,257,0.0,0.0,81,0.00,,,0.00,,2013-06-17 04:53:00,
2013-06-17 01:02:00,66.0,60.0,29.88,WSW,257,0.0,0.0,81,0.00,,,0.00,,2013-06-17 05:02:00,
2013-06-17 01:12:00,65.0,59.0,29.88,WSW,257,0.0,0.0,82,0.00,,,0.00,,2013-06-17 05:12:00,
2013-06-17 01:22:00,65.0,59.0,29.88,WSW,257,0.0,0.0,82,0.00,,,0.00,,2013-06-17 05:22:00,
2013-06-17 01:33:00,65.0,60.0,29.88,WSW,257,0.0,0.0,83,0.00,,,0.00,,2013-06-17 05:33:00,
2013-06-17 01:44:00,64.0,59.0,29.87,WSW,257,0.0,0.0,83,0.00,,,0.00,,2013-06-17 05:44:00,
2013-06-17 01:53:00,64.0,59.0,29.88,WSW,257,0.0,0.0,83,0.00,,,0.00,,2013-06-17 05:53:00,
2013-06-17 02:02:00,64.0,59.0,29.88,WSW,257,0.0,0.0,84,0.00,,,0.00,,2013-06-17 06:02:00,
2013-06-17 02:12:00,63.0,58.0,29.88,WSW,256,0.0,0.0,85,0.00,,,0.00,,2013-06-17 06:12:00,
2013-06-17 02:22:00,63.0,58.0,29.88,WSW,256,0.0,0.0,85,0.00,,,0.00,,2013-06-17 06:22:00,
2013-06-17 02:33:00,63.0,59.0,29.88,WSW,257,0.0,0.0,86,0.00,,,0.00,,2013-06-17 06:33:00,
2013-06-17 02:43:00,62.0,58.0,29.88,WSW,257,0.0,0.0,86,0.00,,,0.00,,2013-06-17 06:43:00,
2013-06-17 02:53:00,62.0,58.0,29.88,WSW,257,0.0,0.0,86,0.00,,,0.00,,2013-06-17 06:53:00,
2013-06-17 03:02:00,62.0,58.0,29.89,WSW,257,0.0,0.0,86,0.00,,,0.00,,2013-06-17 07:02:00,
2013-06-17 03:12:00,62.0,58.0,29.89,WSW,257,0.0,0.0,87,0.00,,,0.00,,2013-06-17 07:12:00,
2013-06-17 03:22:00,62.0,58.0,29.88,WSW,256,0.0,0.0,87,0.00,,,0.00,,2013-06-17 07:22:00,
2013-06-17 03:33:00,61.0,57.0,29.88,WSW,256,0.0,0.0,87,0.00,,,0.00,,2013-06-17 07:33:00,
2013-06-17 03:43:00,62.0,58.0,29.89,WSW,257,0.0,0.0,88,0.00,,,0.00,,2013-06-17 07:43:00,
2013-06-17 03:53:00,62.0,58.0,29.89,WSW,256,0.0,0.0,88,0.00,,,0.00,,2013-06-17 07:53:00,
2013-06-17 04:02:00,61.0,57.0,29.89,WSW,256,0.0,0.0,88,0.00,,,0.00,,2013-06-17 08:02:00,
2013-06-17 04:12:00,61.0,57.0,29.88,WSW,257,0.0,0.0,88,0.00,,,0.00,,2013-06-17 08:12:00,
2013-06-17 04:22:00,61.0,57.0,29.88,WSW,257,0.0,0.0,88,0.00,,,0.00,,2013-06-17 08:22:00,
2013-06-17 04:34:00,61.0,57.0,29.88,WSW,257,0.0,0.0,88,0.00,,,0.00,,2013-06-17 08:34:00,
2013-06-17 04:43:00,61.0,57.0,29.88,WSW,257,0.0,0.0,88,0.00,,,0.00,,2013-06-17 08:43:00,
2013-06-17 04:53:00,60.0,57.0,29.89,WSW,257,0.0,0.0,89,0.00,,,0.00,,2013-06-17 08:53:00,
2013-06-17 05:02:00,60.0,57.0,29.89,WSW,257,0.0,0.0,89,0.00,,,0.00,,2013-06-17 09:02:00,
2013-06-17 05:12:00,60.0,57.0,29.90,WSW,257,0.0,0.0,89,0.00,,,0.00,,2013-06-17 09:12:00,
2013-06-17 05:22:00,61.0,58.0,29.90,WSW,257,0.0,0.0,89,0.00,,,0.00,,2013-06-17 09:22:00,
2013-06-17 05:34:00,61.0,58.0,29.90,WSW,257,0.0,0.0,89,0.00,,,0.00,,2013-06-17 09:34:00,
2013-06-17 05:44:00,61.0,58.0,29.90,WSW,257,0.0,0.0,89,0.00,,,0.00,,2013-06-17 09:44:00,
2013-06-17 05:52:00,61.0,58.0,29.91,WSW,256,0.0,0.0,89,0.00,,,0.00,,2013-06-17 09:52:00,
2013-06-17 06:02:00,62.0,59.0,29.91,WSW,257,0.0,0.0,90,0.00,,,0.00,,2013-06-17 10:02:00,
2013-06-17 06:12:00,62.0,59.0,29.91,WSW,257,0.0,0.0,90,0.00,,,0.00,,2013-06-17 10:12:00,
2013-06-17 06:22:00,62.0,59.0,29.91,WSW,256,0.0,0.0,90,0.00,,,0.00,,2013-06-17 10:22:00,
2013-06-17 06:33:00,62.0,59.0,29.91,WSW,257,0.0,0.0,90,0.00,,,0.00,,2013-06-17 10:33:00,
2013-06-17 06:43:00,62.0,59.0,29.92,WSW,257,0.0,0.0,89,0.00,,,0.00,,2013-06-17 10:43:00,
2013-06-17 06:53:00,62.0,59.0,29.92,WSW,256,0.0,0.0,90,0.00,,,0.00,,2013-06-17 10:53:00,
2013-06-17 07:02:00,63.0,60.0,29.92,WSW,249,0.0,0.0,90,0.00,,,0.00,,2013-06-17 11:02:00,
2013-06-17 07:12:00,64.0,61.0,29.92,WSW,249,0.0,0.0,90,0.00,,,0.00,,2013-06-17 11:12:00,
2013-06-17 07:23:00,64.0,61.0,29.93,WSW,249,0.0,0.0,90,0.00,,,0.00,,2013-06-17 11:23:00,
2013-06-17 07:33:00,64.0,61.0,29.93,South,179,0.0,0.0,89,0.00,,,0.00,,2013-06-17 11:33:00,
2013-06-17 07:43:00,65.0,62.0,29.93,NNW,338,0.0,0.0,89,0.00,,,0.00,,2013-06-17 11:43:00,
2013-06-17 07:53:00,65.0,61.0,29.93,NNW,339,0.0,0.0,88,0.00,,,0.00,,2013-06-17 11:53:00,
2013-06-17 08:02:00,66.0,62.0,29.93,WNW,296,0.0,0.0,87,0.00,,,0.00,,2013-06-17 12:02:00,
2013-06-17 08:12:00,66.0,62.0,29.93,WNW,295,0.0,0.0,87,0.00,,,0.00,,2013-06-17 12:12:00,
2013-06-17 08:23:00,67.0,62.0,29.93,WNW,286,0.0,2.0,85,0.00,,,0.00,,2013-06-17 12:23:00,
2013-06-17 08:33:00,67.0,62.0,29.93,WSW,244,0.0,2.0,84,0.00,,,0.00,,2013-06-17 12:33:00,
2013-06-17 08:43:00,68.0,62.0,29.93,SE,146,0.0,2.0,82,0.00,,,0.00,,2013-06-17 12:43:00,
2013-06-17 08:53:00,68.0,62.0,29.93,SE,146,0.0,2.0,82,0.00,,,0.00,,2013-06-17 12:53:00,
2013-06-17 09:02:00,69.0,63.0,29.93,SW,214,0.0,1.0,81,0.00,,,0.00,,2013-06-17 13:02:00,
2013-06-17 09:12:00,70.0,63.0,29.92,SW,222,0.0,4.0,79,0.00,,,0.00,,2013-06-17 13:12:00,
2013-06-17 09:22:00,71.0,64.0,29.93,SSW,193,0.0,2.0,79,0.00,,,0.00,,2013-06-17 13:22:00,
2013-06-17 09:32:00,72.0,64.0,29.92,WNW,286,0.0,1.0,75,0.00,,,0.00,,2013-06-17 13:32:00,
2013-06-17 09:43:00,74.0,65.0,29.92,NW,319,0.0,1.0,74,0.00,,,0.00,,2013-06-17 13:43:00,
2013-06-17 09:52:00,75.0,65.0,29.92,NW,317,0.0,1.0,71,0.00,,,0.00,,2013-06-17 13:52:00,
2013-06-17 10:02:00,77.0,65.0,29.92,SSE,159,0.0,2.0,66,0.00,,,0.00,,2013-06-17 14:02:00,
2013-06-17 10:12:00,77.0,64.0,29.92,South,172,1.0,2.0,65,0.00,,,0.00,,2013-06-17 14:12:00,
2013-06-17 10:22:00,78.0,65.0,29.92,SE,134,0.0,3.0,64,0.00,,,0.00,,2013-06-17 14:22:00,
2013-06-17 10:34:00,78.0,64.0,29.91,South,178,0.0,4.0,63,0.00,,,0.00,,2013-06-17 14:34:00,
2013-06-17 10:43:00,80.0,65.0,29.91,SSE,157,0.0,2.0,61,0.00,,,0.00,,2013-06-17 14:43:00,
2013-06-17 10:53:00,81.0,65.0,29.91,SSE,155,0.0,1.0,58,0.00,,,0.00,,2013-06-17 14:53:00,
2013-06-17 11:02:00,81.0,66.0,29.91,SW,218,0.0,1.0,61,0.00,,,0.00,,2013-06-17 15:02:00,
2013-06-17 11:12:00,82.0,66.0,29.91,WSW,257,0.0,2.0,58,0.00,,,0.00,,2013-06-17 15:12:00,
2013-06-17 11:22:00,83.0,63.0,29.91,SW,233,0.0,1.0,51,0.00,,,0.00,,2013-06-17 15:22:00,
2013-06-17 11:33:00,84.0,66.0,29.91,SW,236,0.0,1.0,54,0.00,,,0.00,,2013-06-17 15:33:00,
2013-06-17 11:43:00,84.0,64.0,29.90,SSE,154,0.0,4.0,52,0.00,,,0.00,,2013-06-17 15:43:00,
2013-06-17 11:52:00,84.0,64.0,29.90,WNW,298,1.0,5.0,52,0.00,,,0.00,,2013-06-17 15:52:00,
2013-06-17 12:02:00,84.0,64.0,29.90,ENE,75,0.0,1.0,51,0.00,,,0.00,,2013-06-17 16:02:00,
2013-06-17 12:12:00,84.0,62.0,29.91,SSW,208,0.0,2.0,48,0.00,,,0.00,,2013-06-17 16:12:00,
2013-06-17 12:22:00,84.0,64.0,29.91,NNW,348,0.0,3.0,52,0.00,,,0.00,,2013-06-17 16:22:00,
2013-06-17 12:33:00,84.0,65.0,29.91,NNW,348,0.0,2.0,53,0.00,,,0.00,,2013-06-17 16:33:00,
2013-06-17 12:43:00,85.0,64.0,29.91,SE,141,0.0,3.0,50,0.00,,,0.00,,2013-06-17 16:43:00,
2013-06-17 12:53:00,85.0,63.0,29.91,NE,53,0.0,2.0,48,0.00,,,0.00,,2013-06-17 16:53:00,
2013-06-17 13:02:00,84.0,63.0,29.90,NE,37,0.0,2.0,49,0.00,,,0.00,,2013-06-17 17:02:00,
2013-06-17 13:12:00,84.0,64.0,29.90,NNE,16,0.0,1.0,51,0.00,,,0.00,,2013-06-17 17:12:00,
2013-06-17 13:22:00,81.0,64.0,29.90,SSW,196,0.0,2.0,56,0.00,,,0.00,,2013-06-17 17:22:00,
2013-06-17 13:33:00,82.0,65.0,29.90,West,275,0.0,2.0,56,0.00,,,0.00,,2013-06-17 17:33:00,
2013-06-17 13:43:00,84.0,64.0,29.89,SW,223,0.0,3.0,51,0.00,,,0.00,,2013-06-17 17:43:00,
2013-06-17 13:52:00,85.0,64.0,29.89,South,179,0.0,3.0,50,0.00,,,0.00,,2013-06-17 17:52:00,
2013-06-17 14:02:00,86.0,64.0,29.89,South,177,0.0,6.0,48,0.00,,,0.00,,2013-06-17 18:02:00,
2013-06-17 14:12:00,87.0,65.0,29.88,SW,214,0.0,3.0,48,0.00,,,0.00,,2013-06-17 18:12:00,
2013-06-17 14:23:00,86.0,64.0,29.88,WNW,300,0.0,4.0,48,0.00,,,0.00,,2013-06-17 18:23:00,
2013-06-17 14:33:00,87.0,66.0,29.88,NNW,345,0.0,3.0,50,0.00,,,0.00,,2013-06-17 18:33:00,
2013-06-17 14:43:00,86.0,65.0,29.88,SE,126,1.0,8.0,50,0.00,,,0.00,,2013-06-17 18:43:00,
2013-06-17 14:53:00,85.0,64.0,29.88,SSW,204,1.0,6.0,50,0.00,,,0.00,,2013-06-17 18:53:00,
2013-06-17 15:02:00,85.0,66.0,29.88,NNW,337,0.0,9.0,54,0.00,,,0.00,,2013-06-17 19:02:00,
2013-06-17 15:12:00,86.0,64.0,29.87,West,264,0.0,5.0,48,0.00,,,0.00,,2013-06-17 19:12:00,
2013-06-17 15:22:00,86.0,65.0,29.87,SSE,155,0.0,2.0,49,0.00,,,0.00,,2013-06-17 19:22:00,
2013-06-17 15:33:00,85.0,62.0,29.87,SSW,192,0.0,1.0,47,0.00,,,0.00,,2013-06-17 19:33:00,
2013-06-17 15:43:00,85.0,63.0,29.86,SW,229,0.0,2.0,48,0.00,,,0.00,,2013-06-17 19:43:00,
2013-06-17 15:53:00,86.0,66.0,29.86,SW,217,0.0,2.0,51,0.00,,,0.00,,2013-06-17 19:53:00,
2013-06-17 16:02:00,86.0,63.0,29.86,SW,232,0.0,1.0,46,0.00,,,0.00,,2013-06-17 20:02:00,
2013-06-17 16:11:00,84.0,65.0,29.86,SSE,159,0.0,2.0,53,0.00,,,0.00,,2013-06-17 20:11:00,
2013-06-17 16:22:00,84.0,64.0,29.86,SSW,211,0.0,3.0,52,0.00,,,0.00,,2013-06-17 20:22:00,
2013-06-17 16:34:00,84.0,63.0,29.86,SW,216,0.0,1.0,49,0.00,,,0.00,,2013-06-17 20:34:00,
2013-06-17 16:43:00,84.0,63.0,29.86,SW,231,0.0,1.0,50,0.00,,,0.00,,2013-06-17 20:43:00,
2013-06-17 16:52:00,84.0,62.0,29.86,WNW,287,0.0,2.0,47,0.00,,,0.00,,2013-06-17 20:52:00,
2013-06-17 17:02:00,84.0,62.0,29.86,NNW,347,0.0,4.0,48,0.00,,,0.00,,2013-06-17 21:02:00,
2013-06-17 17:12:00,83.0,60.0,29.86,SSW,192,1.0,7.0,46,0.00,,,0.00,,2013-06-17 21:12:00,
2013-06-17 17:22:00,83.0,60.0,29.86,NW,325,0.0,3.0,46,0.00,,,0.00,,2013-06-17 21:22:00,
2013-06-17 17:33:00,83.0,61.0,29.86,WNW,294,0.0,2.0,47,0.00,,,0.00,,2013-06-17 21:33:00,
2013-06-17 17:43:00,83.0,61.0,29.87,NW,321,0.0,2.0,47,0.00,,,0.00,,2013-06-17 21:43:00,
2013-06-17 17:52:00,83.0,61.0,29.87,NW,321,0.0,2.0,47,0.00,,,0.00,,2013-06-17 21:52:00,
2013-06-17 18:01:00,81.0,58.0,29.88,NNW,338,0.0,1.0,45,0.00,,,0.00,,2013-06-17 22:01:00,
2013-06-17 18:11:00,80.0,55.0,29.90,NW,313,1.0,12.0,43,0.00,,,0.00,,2013-06-17 22:11:00,
2013-06-17 18:22:00,77.0,54.0,29.90,NW,317,5.0,11.0,45,0.00,,,0.00,,2013-06-17 22:22:00,
2013-06-17 18:34:00,75.0,55.0,29.89,WNW,294,2.0,11.0,50,0.00,,,0.00,,2013-06-17 22:34:00,
2013-06-17 18:43:00,74.0,56.0,29.88,WNW,289,0.0,9.0,53,0.00,,,0.00,,2013-06-17 22:43:00,
2013-06-17 18:53:00,74.0,57.0,29.88,NW,309,1.0,4.0,56,0.00,,,0.00,,2013-06-17 22:53:00,
2013-06-17 19:02:00,74.0,58.0,29.88,NW,309,0.0,0.0,58,0.00,,,0.00,,2013-06-17 23:02:00,
2013-06-17 19:11:00,73.0,58.0,29.88,SSW,205,0.0,2.0,59,0.00,,,0.00,,2013-06-17 23:11:00,
2013-06-17 19:22:00,73.0,58.0,29.88,NNW,338,0.0,1.0,60,0.00,,,0.00,,2013-06-17 23:22:00,
2013-06-17 19:33:00,73.0,58.0,29.88,NNW,338,0.0,0.0,59,0.00,,,0.00,,2013-06-17 23:33:00,
2013-06-17 19:43:00,73.0,59.0,29.90,NNW,338,0.0,1.0,61,0.00,,,0.00,,2013-06-17 23:43:00,
2013-06-17 19:53:00,73.0,58.0,29.90,ENE,60,1.0,3.0,60,0.00,,,0.00,,2013-06-17 23:53:00,
2013-06-17 20:01:00,72.0,59.0,29.91,ENE,57,0.0,2.0,63,0.00,,,0.00,,2013-06-18 00:01:00,
2013-06-17 20:12:00,72.0,59.0,29.91,ENE,63,1.0,4.0,64,0.00,,,0.00,,2013-06-18 00:12:00,
2013-06-17 20:22:00,71.0,59.0,29.92,East,87,0.0,1.0,66,0.00,,,0.00,,2013-06-18 00:22:00,
2013-06-17 20:33:00,70.0,59.0,29.91,ENE,72,0.0,3.0,67,0.00,,,0.00,,2013-06-18 00:33:00,
2013-06-17 20:43:00,70.0,59.0,29.92,ENE,72,0.0,1.0,68,0.00,,,0.00,,2013-06-18 00:43:00,
2013-06-17 20:52:00,69.0,58.0,29.92,ENE,72,0.0,1.0,69,0.00,,,0.00,,2013-06-18 00:52:00,
2013-06-17 21:01:00,69.0,58.0,29.92,ENE,72,0.0,0.0,68,0.00,,,0.00,,2013-06-18 01:01:00,
2013-06-17 21:12:00,68.0,58.0,29.92,ENE,72,0.0,0.0,70,0.00,,,0.00,,2013-06-18 01:12:00,
2013-06-17 21:23:00,68.0,58.0,29.92,ENE,72,0.0,0.0,71,0.00,,,0.00,,2013-06-18 01:23:00,
2013-06-17 21:34:00,68.0,59.0,29.92,ENE,72,0.0,1.0,72,0.00,,,0.00,,2013-06-18 01:34:00,
2013-06-17 21:44:00,67.0,58.0,29.93,ENE,72,0.0,0.0,74,0.00,,,0.00,,2013-06-18 01:44:00,
2013-06-17 21:53:00,67.0,58.0,29.94,ENE,72,0.0,0.0,74,0.00,,,0.00,,2013-06-18 01:53:00,
2013-06-17 22:02:00,66.0,58.0,29.95,ENE,72,0.0,1.0,76,0.00,,,0.00,,2013-06-18 02:02:00,
2013-06-17 22:12:00,66.0,58.0,29.95,ENE,72,0.0,1.0,76,0.00,,,0.00,,2013-06-18 02:12:00,
2013-06-17 22:22:00,66.0,58.0,29.95,ENE,72,0.0,0.0,76,0.00,,,0.00,,2013-06-18 02:22:00,
2013-06-17 22:34:00,65.0,57.0,29.95,ENE,72,0.0,0.0,76,0.00,,,0.00,,2013-06-18 02:34:00,
2013-06-17 22:43:00,65.0,57.0,29.95,ENE,72,0.0,0.0,76,0.00,,,0.00,,2013-06-18 02:43:00,
2013-06-17 22:53:00,65.0,57.0,29.94,ENE,72,0.0,0.0,76,0.00,,,0.00,,2013-06-18 02:53:00,
2013-06-17 23:02:00,65.0,57.0,29.94,ENE,72,0.0,0.0,76,0.00,,,0.00,,2013-06-18 03:02:00,
2013-06-17 23:12:00,64.0,57.0,29.94,ENE,72,0.0,0.0,77,0.00,,,0.00,,2013-06-18 03:12:00,
2013-06-17 23:23:00,64.0,57.0,29.95,ENE,72,0.0,0.0,78,0.00,,,0.00,,2013-06-18 03:23:00,
2013-06-17 23:34:00,64.0,57.0,29.95,ENE,72,0.0,0.0,78,0.00,,,0.00,,2013-06-18 03:34:00,
2013-06-17 23:43:00,64.0,58.0,29.95,ENE,72,0.0,0.0,80,0.00,,,0.00,,2013-06-18 03:43:00,
2013-06-17 23:53:00,63.0,57.0,29.95,ENE,72,0.0,1.0,81,0.00,,,0.00,,2013-06-18 03:53:00,